Mehtap Bayraktar — TCPB — position and weather

sailwx.info

Track history (hours):
 
Tides and Currents Weather Stations Pressure Air Temp Water Temp Dewpoint Dewpoint Depression Visibility Wind Speed Wind Dir Waves Ship Positions

Mehtap Bayraktar

Last reported at 2014-Oct-18 17:06 UTC. Time now 2014-Oct-20 09:55 UTC.
Position N 37°59' E 002°36'.

Length 114 m; draft 6.5 m.

Type: Ship (hazmat cat A). MMSI: 271000578.

Date/timePositionNaut miles runAvg speedWind from/ knotsBaromVisibWave heightAir tempDewpointWater temp
2014-Oct-18 17:06N 37°59' E 002°36'712.5
2014-Oct-18 16:33N 38°05' E 002°33'1212.3
2014-Oct-18 15:33N 38°17' E 002°28'1313.0
2014-Oct-18 14:33N 38°29' E 002°23'1312.6
2014-Oct-18 13:33N 38°41' E 002°18'1313.2
2014-Oct-18 12:33N 38°54' E 002°13'1313.3
2014-Oct-18 11:33N 39°06' E 002°08'1313.0
2014-Oct-18 10:33N 39°19' E 002°02'1513.3
2014-Oct-18 09:26N 39°33' E 001°55'1312.1
2014-Oct-18 08:20N 39°46' E 001°57'912.0
2014-Oct-18 07:33N 39°55' E 001°58'1211.9
2014-Oct-18 06:33N 40°07' E 002°00'1212.3
2014-Oct-18 05:33N 40°19' E 002°02'1212.4
2014-Oct-18 04:33N 40°32' E 002°04'1312.6
2014-Oct-18 03:33N 40°44' E 002°05'1313.1
2014-Oct-18 02:33N 40°57' E 002°07'1313.4
2014-Oct-18 01:33N 41°10' E 002°09'10 8.3
2014-Oct-18 00:18N 41°21' E 002°10'0 0.0
2014-Oct-17 23:30N 41°21' E 002°10'0 0.0
2014-Oct-17 22:30N 41°21' E 002°10'0 0.0
2014-Oct-17 21:24N 41°21' E 002°10'0 0.0
2014-Oct-17 20:33N 41°21' E 002°10'0 0.0
2014-Oct-17 19:30N 41°21' E 002°10'3 3.6
2014-Oct-17 18:33N 41°17' E 002°11'4 3.6
2014-Oct-17 17:33N 41°14' E 002°14'1 0.6
2014-Oct-17 16:33N 41°14' E 002°14'1 0.6
2014-Oct-17 15:33N 41°13' E 002°14'0 0.5
2014-Oct-17 14:33N 41°13' E 002°15'1110.8
2014-Oct-17 13:33N 41°05' E 002°24'1212.2
2014-Oct-17 12:33N 40°55' E 002°34'1212.1
2014-Oct-17 11:33N 40°46' E 002°44'1211.7
2014-Oct-17 10:33N 40°36' E 002°53'1212.2
2014-Oct-17 09:33N 40°26' E 003°03'1412.5
2014-Oct-17 08:27N 40°16' E 003°14'2211.5
2014-Oct-17 06:32N 39°58' E 003°31'1612.0
2014-Oct-17 05:13N 39°45' E 003°42'812.0
2014-Oct-17 04:32N 39°37' E 003°46'4112.2
2014-Oct-17 01:09N 38°59' E 004°07'  
2014-Oct-14 02:31N 38°22' E 003°02'1212.4
2014-Oct-14 01:33N 38°30' E 002°51'1313.0
2014-Oct-14 00:33N 38°39' E 002°38'1313.0
2014-Oct-13 23:33N 38°48' E 002°26'1313.0
2014-Oct-13 22:33N 38°56' E 002°14'1312.6
2014-Oct-13 21:33N 39°05' E 002°02'1312.6
2014-Oct-13 20:33N 39°13' E 001°50'1212.3
2014-Oct-13 19:33N 39°19' E 001°36'1312.5
2014-Oct-13 18:33N 39°25' E 001°21'46 1.4
2014-Oct-12 10:16N 38°42' E 000°59'3512.6
2014-Oct-12 07:29N 38°13' E 001°24'3913.0
2014-Oct-12 04:29N 37°46' E 001°59'3012.7
2014-Oct-12 02:09N 37°24' E 002°25'813.3
2014-Oct-12 01:33N 37°18' E 002°32'1313.4
2014-Oct-12 00:33N 37°09' E 002°43'1512.9
2014-Oct-11 23:23N 36°58' E 002°56'1112.8
2014-Oct-11 22:33N 36°50' E 003°05'4 0.2
2014-Oct-10 21:05N 36°46' E 003°04'0 0.0
2014-Oct-10 20:29N 36°46' E 003°04'0 0.0
2014-Oct-10 06:29N 36°46' E 003°04'0 0.0
2014-Oct-09 22:29N 36°46' E 003°04'0 0.0
2014-Oct-09 20:26N 36°46' E 003°04'0 0.0
2014-Oct-09 16:29N 36°46' E 003°04'1 0.3
2014-Oct-09 14:27N 36°46' E 003°05'2 1.9
2014-Oct-09 13:33N 36°46' E 003°07'0 0.1
2014-Oct-09 11:31N 36°46' E 003°07'0 0.0
2014-Oct-09 07:31N 36°46' E 003°07'0 0.0
2014-Oct-08 20:13N 36°46' E 003°07'0 0.1
2014-Oct-08 19:31N 36°46' E 003°07'0 0.0
2014-Oct-08 18:31N 36°46' E 003°07'0 0.1
2014-Oct-08 17:25N 36°46' E 003°07'  
Track history (hours):
 
Tides and Currents Weather Stations Pressure Air Temp Water Temp Dewpoint Dewpoint Depression Visibility Wind Speed Wind Dir Waves Ship Positions

Mehtap Bayraktar

Last reported at 2014-Oct-18 17:06 UTC. Time now 2014-Oct-20 09:55 UTC.
Position N 37°59' E 002°36'.

Length 114 m; draft 6.5 m.

Type: Ship (hazmat cat A). MMSI: 271000578.

Date/timePositionNaut miles runAvg speedWind from/ knotsBaromVisibWave heightAir tempDewpointWater temp
2014-Oct-18 17:06N 37°59' E 002°36'712.5
2014-Oct-18 16:33N 38°05' E 002°33'1212.3
2014-Oct-18 15:33N 38°17' E 002°28'1313.0
2014-Oct-18 14:33N 38°29' E 002°23'1312.6
2014-Oct-18 13:33N 38°41' E 002°18'1313.2
2014-Oct-18 12:33N 38°54' E 002°13'1313.3
2014-Oct-18 11:33N 39°06' E 002°08'1313.0
2014-Oct-18 10:33N 39°19' E 002°02'1513.3
2014-Oct-18 09:26N 39°33' E 001°55'1312.1
2014-Oct-18 08:20N 39°46' E 001°57'912.0
2014-Oct-18 07:33N 39°55' E 001°58'1211.9
2014-Oct-18 06:33N 40°07' E 002°00'1212.3
2014-Oct-18 05:33N 40°19' E 002°02'1212.4
2014-Oct-18 04:33N 40°32' E 002°04'1312.6
2014-Oct-18 03:33N 40°44' E 002°05'1313.1
2014-Oct-18 02:33N 40°57' E 002°07'1313.4
2014-Oct-18 01:33N 41°10' E 002°09'10 8.3
2014-Oct-18 00:18N 41°21' E 002°10'0 0.0
2014-Oct-17 23:30N 41°21' E 002°10'0 0.0
2014-Oct-17 22:30N 41°21' E 002°10'0 0.0
2014-Oct-17 21:24N 41°21' E 002°10'0 0.0
2014-Oct-17 20:33N 41°21' E 002°10'0 0.0
2014-Oct-17 19:30N 41°21' E 002°10'3 3.6
2014-Oct-17 18:33N 41°17' E 002°11'4 3.6
2014-Oct-17 17:33N 41°14' E 002°14'1 0.6
2014-Oct-17 16:33N 41°14' E 002°14'1 0.6
2014-Oct-17 15:33N 41°13' E 002°14'0 0.5
2014-Oct-17 14:33N 41°13' E 002°15'1110.8
2014-Oct-17 13:33N 41°05' E 002°24'1212.2
2014-Oct-17 12:33N 40°55' E 002°34'1212.1
2014-Oct-17 11:33N 40°46' E 002°44'1211.7
2014-Oct-17 10:33N 40°36' E 002°53'1212.2
2014-Oct-17 09:33N 40°26' E 003°03'1412.5
2014-Oct-17 08:27N 40°16' E 003°14'2211.5
2014-Oct-17 06:32N 39°58' E 003°31'1612.0
2014-Oct-17 05:13N 39°45' E 003°42'812.0
2014-Oct-17 04:32N 39°37' E 003°46'4112.2
2014-Oct-17 01:09N 38°59' E 004°07'  
2014-Oct-14 02:31N 38°22' E 003°02'1212.4
2014-Oct-14 01:33N 38°30' E 002°51'1313.0
2014-Oct-14 00:33N 38°39' E 002°38'1313.0
2014-Oct-13 23:33N 38°48' E 002°26'1313.0
2014-Oct-13 22:33N 38°56' E 002°14'1312.6
2014-Oct-13 21:33N 39°05' E 002°02'1312.6
2014-Oct-13 20:33N 39°13' E 001°50'1212.3
2014-Oct-13 19:33N 39°19' E 001°36'1312.5
2014-Oct-13 18:33N 39°25' E 001°21'46 1.4
2014-Oct-12 10:16N 38°42' E 000°59'3512.6
2014-Oct-12 07:29N 38°13' E 001°24'3913.0
2014-Oct-12 04:29N 37°46' E 001°59'3012.7
2014-Oct-12 02:09N 37°24' E 002°25'813.3
2014-Oct-12 01:33N 37°18' E 002°32'1313.4
2014-Oct-12 00:33N 37°09' E 002°43'1512.9
2014-Oct-11 23:23N 36°58' E 002°56'1112.8
2014-Oct-11 22:33N 36°50' E 003°05'4 0.2
2014-Oct-10 21:05N 36°46' E 003°04'0 0.0
2014-Oct-10 20:29N 36°46' E 003°04'0 0.0
2014-Oct-10 06:29N 36°46' E 003°04'0 0.0
2014-Oct-09 22:29N 36°46' E 003°04'0 0.0
2014-Oct-09 20:26N 36°46' E 003°04'0 0.0
2014-Oct-09 16:29N 36°46' E 003°04'1 0.3
2014-Oct-09 14:27N 36°46' E 003°05'2 1.9
2014-Oct-09 13:33N 36°46' E 003°07'0 0.1
2014-Oct-09 11:31N 36°46' E 003°07'0 0.0
2014-Oct-09 07:31N 36°46' E 003°07'0 0.0
2014-Oct-08 20:13N 36°46' E 003°07'0 0.1
2014-Oct-08 19:31N 36°46' E 003°07'0 0.0
2014-Oct-08 18:31N 36°46' E 003°07'0 0.1
2014-Oct-08 17:25N 36°46' E 003°07'  

Dump ship's entire track history